Tiempo atmosférico en la estación meteorológica de Láujar De Andarax, Almería (1510 m.)



Fecha
DESCASC
Temp. máxima en grados centígrados (hora)
DESCASC
Temp. mínima en grados centígrados (hora)
DESCASC
Temp. media en grados centígrados
DESCASC
Racha de viento máxima en m/sg (hora)
DESCASC
Velocidad máxima media en intervalos de 10 minutos(hora)
DESCASC
Precipitaciones diarias en mm
DESCASC
Precipitaciones de 00:00 a 06:00 en mm
DESCASC
Precipitaciones de 06:00 a 12:00 en mm
DESCASC
Precipitaciones de 12:00 a 18:00 en mm
DESCASC
Precipitaciones de 18:00 a 24:00 en mm
DESCASC
31-03-2020 5.7 (00:00) 1.1 (06:50) 3.4 12.5 (06:00) 9.72 (06:00) 29.8 8 8 12.6 1.2
30-03-2020 10.8 (14:00) 4.8 (00:00) 7.8 8.89 (12:50) 6.39 (15:40) 0 0 0 0 0
29-03-2020 12 (14:10) 1.5 (00:00) 6.8 9.72 (16:40) 6.67 (14:50) 0 0 0 0 0
28-03-2020 7.8 (15:20) 0.6 (00:00) 4.2 7.22 (14:00) 5 (16:40) 2.8 2.8 0 0 0
27-03-2020 6.2 (00:00) 1.7 (00:00) 3.9 5.28 (14:10) 3.89 (19:00) 2.8 0 0.2 0.6 2
26-03-2020 12.5 (14:30) 3 (00:00) 7.8 20 (15:30) 12.78 (19:40) 1.4 1.2 0.2 0 0
25-03-2020 3.9 (12:00) 0 (00:00) 2 8.89 (15:10) 6.67 (14:50) 4 0 0.6 0.8 2.6
24-03-2020 8.2 (10:40) 3.2 (00:00) 5.7 11.94 (00:20) 3.89 (10:50) 0 0 0 0 0
23-03-2020 10 (13:00) 0.5 (00:00) 5.3 9.72 (19:10) 3.61 (22:20) 9.6 0 0.2 5.6 3.8
22-03-2020 4.3 (16:50) 0 (06:10) 2.2 9.17 (02:20) 6.11 (02:20) 9.8 2 4 3.4 0.4
21-03-2020 8.7 (13:40) 0.5 (00:00) 4.6 13.89 (07:40) 9.44 (07:50) 13.8 0.6 10.6 0.2 2.4
20-03-2020 11.9 (17:20) 2.6 (00:00) 7.2 8.89 (10:50) 5 (07:20) 0 0 0 0 0
19-03-2020 14.1 (14:50) 3.2 (00:00) 8.7 8.89 (20:00) 5.28 (20:40) 0 0 0 0 0
18-03-2020 11.9 (15:40) 4 (00:00) 7.9 11.67 (01:20) 4.72 (23:30) 0.4 0.4 0 0 0
17-03-2020 9.8 (14:30) -0.4 (00:00) 4.7 13.06 (22:50) 4.17 (22:50) 1.6 0 0 1.6 0
16-03-2020 10.3 (16:30) 0.4 (00:00) 5.4 18.89 (14:10) 13.06 (14:10) 0.2 0 0 0.2 0
15-03-2020 14.1 (12:30) 6.8 (00:00) 10.5 10 (14:00) 7.5 (14:10) 1 0 0 0.4 0.6
14-03-2020 16.6 (15:50) 8.4 (00:00) 12.5 7.78 (16:00) 4.17 (16:30) 0 0 0 0 0
13-03-2020 18.7 (10:50) 9 (23:59) 13.9 8.89 (14:00) 5.56 (14:00) 0 0 0 0 0
12-03-2020 21.6 (16:00) 13.1 (00:00) 17.4 9.17 (15:20) 5.83 (16:30) 0 0 0 0 0
11-03-2020 22.2 (14:40) 11.4 (00:00) 16.8 7.78 (16:00) 5 (15:40) 0 0 0 0 0
10-03-2020 17.5 (14:40) 7.9 (00:00) 12.7 9.17 (03:30) 4.17 (14:50) 0 0 0 0 0
09-03-2020 17.2 (16:00) 8.1 (00:00) 12.7 18.89 (07:00) 14.17 (01:40) 0 0 0 0 0
08-03-2020 17.4 (17:20) 5.1 (00:00) 11.2 14.72 (22:30) 11.39 (22:30) 0 0 0 0 0
07-03-2020 11.8 (14:50) 3.2 (00:00) 7.5 14.17 (00:30) 9.17 (00:20) 0 0 0 0 0
06-03-2020 12.6 (13:20) 4.1 (00:00) 8.4 28.89 (01:20) 16.67 (15:00) 0 0 0 0 0
05-03-2020 17.6 (13:40) 5.4 (00:00) 11.5 24.17 (20:10) 17.78 (20:10) 0 0 0 0 0
04-03-2020 19.4 (15:10) 9.7 (00:00) 14.5 18.33 (00:10) 12.5 (00:10) 0 0 0 0 0
03-03-2020 13.9 (15:10) 5.9 (00:00) 9.9 27.22 (00:20) 13.33 (19:20) 0 0 0 0 0
02-03-2020 13.3 (13:40) 5.5 (00:00) 9.4 29.44 (07:40) 22.22 (22:10) 0 0 0 0 0

Gráficas

Temp. máximas Temp. mínimas Temp. medias Precipitaciones Rachas de viento máximas Velocidades máximas media en intervalos de 10 minutos

Datos horarios

Fecha y hora oficial Temperatura (ºC) Velocidad del viento (km/h) Dirección del viento Racha (km/h) Dirección de racha Precipitación (mm) Presión (hPa) Tendencia (hPa) Humedad (%)
2020-03-31 23:00:00 5 18 Noroeste 40 Noroeste 0 -- -- 100
2020-03-31 22:00:00 5.2 28 Noroeste 43 Noroeste 0 -- -- 100
2020-03-31 21:00:00 5 29 Noroeste 44 Noroeste 0.2 -- -- 100
2020-03-31 20:00:00 4.7 21 Noroeste 38 Noroeste 0 -- -- 100
2020-03-31 19:00:00 5 24 Noroeste 38 Oeste 1 -- -- 100
2020-03-31 18:00:00 5.2 21 Noroeste 33 Noroeste 1.4 -- -- 100
2020-03-31 17:00:00 5.1 20 Noroeste 32 Oeste 0.8 -- -- 100
2020-03-31 16:00:00 5.2 23 Noroeste 33 Noroeste 1.2 -- -- 100
2020-03-31 15:00:00 4.5 15 Noroeste 26 Noroeste 2.6 -- -- 100
2020-03-31 14:00:00 3.4 22 Norte 35 Oeste 4.8 -- -- 100
2020-03-31 13:00:00 4.2 19 Oeste 28 Noroeste 1.8 -- -- 100
2020-03-31 12:00:00 4.3 14 Noroeste 21 Noroeste 1.2 -- -- 100
2020-03-31 11:00:00 3.8 8 Noroeste 29 Noroeste 0.6 -- -- 100
2020-03-31 10:00:00 3 13 Noroeste 25 Noroeste 2.6 -- -- 99
2020-03-31 09:00:00 3 0 Calma 10 Noroeste 0.2 -- -- 97
2020-03-31 08:00:00 2.2 3 Norte 20 Norte 0 -- -- 99
2020-03-31 07:00:00 1.1 15 Norte 44 Noroeste 3.4 -- -- 99
2020-03-31 06:00:00 1.9 35 Norte 45 Noroeste 5.6 -- -- 98
2020-03-31 05:00:00 3.3 5 Nordeste 18 Sudoeste 1.8 -- -- 94
2020-03-31 04:00:00 3.5 5 Sudeste 10 Sudoeste 0.4 -- -- 94
2020-03-31 03:00:00 3.6 5 Este 7 Este 0 -- -- 92
2020-03-31 02:00:00 4 3 Sudeste 7 Sudeste 0.2 -- -- 85
2020-03-31 01:00:00 4.5 2 Sur 18 Norte 0 -- -- 91
2020-03-31 00:00:00 5.7 12 Norte 18 Noroeste 0 -- -- 69
2020-03-30 23:00:00 5.7 9 Noroeste 14 Norte 0 -- -- 87
2020-03-30 22:00:00 5.3 7 Norte 11 Norte 0 -- -- 87
2020-03-30 21:00:00 5.2 6 Norte 10 Noroeste 0 -- -- 84
2020-03-30 20:00:00 6.1 12 Norte 24 Noroeste 0 -- -- 82
2020-03-30 19:00:00 7.5 12 Noroeste 23 Norte 0 -- -- 72
2020-03-30 18:00:00 8 15 Noroeste 30 Noroeste 0 -- -- 72
2020-03-30 17:00:00 8.7 16 Noroeste 31 Noroeste 0 -- -- 71
2020-03-30 16:00:00 7.8 19 Noroeste 32 Oeste 0 -- -- 72
2020-03-30 15:00:00 8.7 17 Noroeste 32 Noroeste 0 -- -- 73
2020-03-30 14:00:00 10.8 17 Noroeste 31 Oeste 0 -- -- 65
2020-03-30 13:00:00 9.9 18 Noroeste 32 Noroeste 0 -- -- 65
2020-03-30 12:00:00 9.3 17 Noroeste 28 Noroeste 0 -- -- 70
2020-03-30 11:00:00 8.2 13 Noroeste 22 Noroeste 0 -- -- 67
2020-03-30 10:00:00 7 6 Oeste 11 Oeste 0 -- -- 73
2020-03-30 09:00:00 5.1 4 Noroeste 6 Noroeste 0 -- -- 85
2020-03-30 08:00:00 4.9 5 Sudeste 7 Sudeste 0 -- -- 78
2020-03-30 07:00:00 5 3 Sur 4 Nordeste 0 -- -- 81
2020-03-30 06:00:00 5.8 0 Calma 4 Noroeste 0 -- -- 78
2020-03-30 05:00:00 5.5 2 Nordeste 5 Nordeste 0 -- -- 79
2020-03-30 04:00:00 5.4 3 Este 5 Este 0 -- -- 80
2020-03-30 03:00:00 6 2 Sudeste 5 Sudeste 0 -- -- 76
2020-03-30 02:00:00 5.9 3 Nordeste 10 Sudeste 0 -- -- 77
2020-03-30 01:00:00 5.1 8 Sudeste 12 Norte 0 -- -- 87
2020-03-30 00:00:00 4.8 7 Norte 10 Norte 0 -- -- 95
2020-03-29 23:00:00 4.5 0 Calma 10 Noroeste 0 -- -- 98
2020-03-29 22:00:00 5 8 Noroeste 13 Norte 0 -- -- 98
2020-03-29 21:00:00 5.5 0 Calma 7 Norte 0 -- -- 95
2020-03-29 20:00:00 5.9 6 Noroeste 17 Norte 0 -- -- 94
2020-03-29 19:00:00 7.3 12 Noroeste 24 Noroeste 0 -- -- 89
2020-03-29 18:00:00 8.6 19 Noroeste 29 Noroeste 0 -- -- 83
2020-03-29 17:00:00 10 21 Noroeste 35 Noroeste 0 -- -- 75
2020-03-29 16:00:00 11.3 19 Noroeste 32 Noroeste 0 -- -- 67
2020-03-29 15:00:00 10 22 Noroeste 34 Noroeste 0 -- -- 72
2020-03-29 14:00:00 10.7 19 Noroeste 30 Noroeste 0 -- -- 67
2020-03-29 13:00:00 9.8 14 Noroeste 32 Oeste 0 -- -- 60
2020-03-29 12:00:00 8.7 12 Oeste 19 Oeste 0 -- -- 62
2020-03-29 11:00:00 7.2 7 Noroeste 14 Noroeste 0 -- -- 64
2020-03-29 10:00:00 5 6 Noroeste 9 Noroeste 0 -- -- 82
2020-03-29 09:00:00 2.7 8 Norte 12 Norte 0 -- -- 84
2020-03-29 08:00:00 1.7 3 Nordeste 9 Noroeste 0 -- -- 98
2020-03-29 07:00:00 2.2 3 Sur 12 Norte 0 -- -- 100
2020-03-29 06:00:00 1.9 5 Norte 9 Norte 0 -- -- 100
2020-03-29 05:00:00 1.6 5 Norte 6 Norte 0 -- -- 100
2020-03-29 03:00:00 2.2 0 Calma 3 Este 0 -- -- 100
2020-03-29 01:00:00 2.7 0 Calma 5 Noroeste 0 -- -- 100
2020-03-29 00:00:00 2.8 3 Oeste 5 Sudoeste 0 -- -- 100
2020-03-28 23:00:00 2.7 3 Noroeste 6 Oeste 0 -- -- 100
2020-03-28 22:00:00 2.8 0 Calma 7 Oeste 0 -- -- 100
2020-03-28 21:00:00 3.1 3 Sudoeste 8 Sudoeste 0 -- -- 100
2020-03-28 20:00:00 3.2 2 Sudoeste 8 Oeste 0 -- -- 100
2020-03-28 19:00:00 3.2 2 Norte 18 Noroeste 0 -- -- 100
2020-03-28 18:00:00 3.4 12 Noroeste 22 Noroeste 0 -- -- 99
2020-03-28 17:00:00 4.3 17 Noroeste 24 Noroeste 0 -- -- 97
2020-03-28 16:00:00 6.4 18 Noroeste 23 Noroeste 0 -- -- 87
2020-03-28 15:00:00 5.9 14 Norte 24 Noroeste 0 -- -- 88
2020-03-28 14:00:00 5.5 17 Noroeste 26 Noroeste 0 -- -- 89
2020-03-28 13:00:00 5.4 8 Noroeste 19 Oeste 0 -- -- 90
2020-03-28 12:00:00 5.3 5 Oeste 18 Oeste 0 -- -- 98
2020-03-28 11:00:00 4.2 9 Sudoeste 18 Sur 0 -- -- 97
2020-03-28 10:00:00 3 6 Sur 14 Sur 0 -- -- 100
2020-03-28 09:00:00 1.9 8 Sur 19 Sur 0 -- -- 100
2020-03-28 08:00:00 1.4 5 Sur 10 Sudeste 0 -- -- 100
2020-03-28 07:00:00 1 4 Sur 12 Sur 0 -- -- 100
2020-03-28 06:00:00 0.7 5 Sudeste 9 Sudeste 0.2 -- -- 100
2020-03-28 05:00:00 1.2 3 Sudeste 8 Sudeste 0 -- -- 100
2020-03-28 04:00:00 0.9 3 Sudeste 6 Sudeste 0 -- -- 100
2020-03-28 03:00:00 1.5 4 Sudeste 6 Sudeste 0 -- -- 100
2020-03-28 02:00:00 1.6 2 Nordeste 5 Norte 0.8 -- -- 100
2020-03-28 01:00:00 1.9 0 Calma 11 Sudoeste 1.8 -- -- 100
2020-03-28 00:00:00 2.3 0 Calma 5 Norte 2 -- -- 100
2020-03-27 23:00:00 2.8 0 Calma 5 Noroeste 0 -- -- 100
2020-03-27 22:00:00 2.6 3 Noroeste 4 Norte 0 -- -- 100
2020-03-27 21:00:00 2.4 3 Norte 10 Norte 0 -- -- 100
2020-03-27 20:00:00 2.6 5 Norte 16 Noroeste 0 -- -- 100
2020-03-27 19:00:00 2.5 14 Norte 18 Norte 0 -- -- 100
2020-03-27 18:00:00 2.5 13 Noroeste 17 Noroeste 0 -- -- 100
2020-03-27 17:00:00 2.5 4 Noroeste 17 Norte 0 -- -- 100
2020-03-27 16:00:00 2.1 11 Norte 18 Norte 0 -- -- 100
2020-03-27 15:00:00 2.3 10 Noroeste 19 Noroeste 0.4 -- -- 100
2020-03-27 14:00:00 2.5 11 Norte 17 Noroeste 0.2 -- -- 100
2020-03-27 13:00:00 2.5 5 Noroeste 10 Sudoeste 0 -- -- 100
2020-03-27 12:00:00 2 7 Sudoeste 14 Sudoeste 0 -- -- 100
2020-03-27 11:00:00 2.6 4 Oeste 16 Sudoeste 0.2 -- -- 100
2020-03-27 10:00:00 2.3 6 Sudoeste 13 Sudoeste 0 -- -- 100
2020-03-27 09:00:00 2.5 2 Sur 5 Sur 0 -- -- 100
2020-03-27 08:00:00 2.3 0 Calma 10 Sudoeste 0 -- -- 100
2020-03-27 07:00:00 2.5 0 Calma 11 Sudoeste 0 -- -- 100
2020-03-27 06:00:00 2.8 5 Sudoeste 10 Sudoeste 0 -- -- 100
2020-03-27 05:00:00 3.3 4 Noroeste 13 Norte 0 -- -- 99
2020-03-27 04:00:00 3.8 3 Noroeste 7 Nordeste 0 -- -- 99
2020-03-27 03:00:00 3.4 3 Sudoeste 7 Sudeste 0 -- -- 98
2020-03-27 02:00:00 3.4 4 Sudeste 7 Sudeste 0 -- -- 96
2020-03-27 01:00:00 4.6 4 Este 9 Norte 0 -- -- 80
2020-03-27 00:00:00 6.2 3 Noroeste 45 Nordeste 0 -- -- 67
2020-03-26 23:00:00 7.2 32 Nordeste 56 Nordeste 0 -- -- 55
2020-03-26 22:00:00 7.3 36 Nordeste 52 Nordeste 0 -- -- 52
2020-03-26 21:00:00 7.1 17 Nordeste 52 Nordeste 0 -- -- 58
2020-03-26 20:00:00 7.9 39 Nordeste 61 Nordeste 0 -- -- 53
2020-03-26 19:00:00 9.1 33 Nordeste 53 Nordeste 0 -- -- 48
2020-03-26 18:00:00 10.9 35 Nordeste 60 Norte 0 -- -- 40
2020-03-26 17:00:00 12 35 Norte 60 Noroeste 0 -- -- 42
2020-03-26 16:00:00 12 36 Norte 72 Norte 0 -- -- 40
2020-03-26 15:00:00 11.9 36 Norte 67 Norte 0 -- -- 47
2020-03-26 14:00:00 12.1 42 Norte 66 Norte 0 -- -- 47
2020-03-26 13:00:00 11.3 30 Norte 62 Noroeste 0 -- -- 51
2020-03-26 12:00:00 11.4 36 Norte 63 Norte 0 -- -- 52
2020-03-26 11:00:00 8.8 26 Norte 53 Norte 0 -- -- 63
2020-03-26 10:00:00 8.1 18 Norte 32 Nordeste 0 -- -- 66
2020-03-26 09:00:00 8.2 18 Norte 46 Norte 0 -- -- 62
2020-03-26 08:00:00 6.2 17 Noroeste 41 Norte 0 -- -- 64
2020-03-26 07:00:00 5 23 Norte 48 Norte 0.2 -- -- 66
2020-03-26 06:00:00 5 24 Norte 37 Norte 0.2 -- -- 68
2020-03-26 05:00:00 5 23 Norte 37 Noroeste 0.2 -- -- 66
2020-03-26 04:00:00 4 14 Nordeste 29 Norte 0.2 -- -- 71
2020-03-26 03:00:00 3.1 13 Norte 23 Norte 0.2 -- -- 74
2020-03-26 02:00:00 3.5 13 Norte 24 Norte 0.2 -- -- 71
2020-03-26 01:00:00 3.1 14 Norte 21 Norte 0.2 -- -- 73
2020-03-26 00:00:00 3.5 15 Norte 21 Norte 0.4 -- -- 73
2020-03-25 23:00:00 2.7 13 Norte 21 Norte 0.4 -- -- 97
2020-03-25 22:00:00 2.2 13 Norte 23 Norte 0.2 -- -- 100
2020-03-25 21:00:00 0.8 5 Noroeste 15 Noroeste 0.2 -- -- 100
2020-03-25 20:00:00 0.7 9 Noroeste 15 Noroeste 0.6 -- -- 100
2020-03-25 19:00:00 0.8 6 Norte 17 Noroeste 0.8 -- -- 100
2020-03-25 18:00:00 1 8 Noroeste 21 Noroeste 0 -- -- 100
2020-03-25 17:00:00 0.4 11 Noroeste 19 Noroeste 0 -- -- 100
2020-03-25 16:00:00 0 14 Noroeste 32 Noroeste 0.2 -- -- 100
2020-03-25 15:00:00 1.7 24 Noroeste 32 Oeste 0.4 -- -- 100
2020-03-25 14:00:00 2 17 Noroeste 27 Noroeste 0.2 -- -- 100
2020-03-25 13:00:00 3.8 13 Noroeste 18 Noroeste 0 -- -- 100
2020-03-25 12:00:00 3.9 11 Noroeste 17 Noroeste 0.2 -- -- 100
2020-03-25 11:00:00 3 5 Oeste 11 Oeste 0 -- -- 100
2020-03-25 10:00:00 3.5 3 Oeste 8 Noroeste 0 -- -- 98
2020-03-25 09:00:00 2.4 0 Calma 8 Este 0 -- -- 100
2020-03-25 08:00:00 1.6 6 Sudeste 14 Sur 0.2 -- -- 100
2020-03-25 07:00:00 1 8 Sur 17 Sudeste 0.2 -- -- 100
2020-03-25 06:00:00 1.4 5 Sur 19 Sur 0 -- -- 100
2020-03-25 05:00:00 1.5 6 Sudeste 21 Sur 0 -- -- 100
2020-03-25 04:00:00 1.8 9 Sur 16 Sur 0 -- -- 100
2020-03-25 03:00:00 2.4 8 Sudeste 23 Sudeste 0 -- -- 100
2020-03-25 02:00:00 3 10 Sudeste 20 Sur 0 -- -- 100
2020-03-25 01:00:00 3.3 0 Calma 17 Sudeste 0 -- -- 100
2020-03-25 00:00:00 3.4 4 Sur 18 Sur 0 -- -- 100
2020-03-24 23:00:00 3.4 6 Sudeste 19 Sur 0 -- -- 100
2020-03-24 22:00:00 3.2 4 Sudeste 21 Sudeste 0 -- -- 100
2020-03-24 21:00:00 3.2 6 Sudeste 19 Sudeste 0 -- -- 100
2020-03-24 20:00:00 3.4 7 Este 30 Sur 0 -- -- 100
2020-03-24 19:00:00 3.8 8 Sudeste 26 Sur 0 -- -- 100
2020-03-24 18:00:00 4.7 9 Sudeste 30 Sudeste 0 -- -- 99
2020-03-24 17:00:00 5.6 9 Sudeste 29 Sur 0 -- -- 96
2020-03-24 16:00:00 5.6 8 Sudeste 32 Sudoeste 0 -- -- 94
2020-03-24 15:00:00 7.3 10 Sudeste 28 Nordeste 0 -- -- 85
2020-03-24 14:00:00 5.1 13 Sudeste 32 Sudeste 0 -- -- 91
2020-03-24 13:00:00 7.7 10 Sudeste 31 Sudeste 0 -- -- 84
2020-03-24 12:00:00 6.2 10 Este 41 Sur 0 -- -- 87
2020-03-24 11:00:00 7.9 13 Este 37 Nordeste 0 -- -- 79
2020-03-24 10:00:00 6.8 14 Sudeste 41 Sudeste 0 -- -- 80
2020-03-24 09:00:00 5.2 12 Este 33 Sur 0 -- -- 89
2020-03-24 08:00:00 4.2 6 Sudeste 23 Sudeste 0 -- -- 96
2020-03-24 07:00:00 3.4 8 Sudeste 33 Este 0 -- -- 96
2020-03-24 06:00:00 4.3 10 Este 29 Sudeste 0 -- -- 92
2020-03-24 05:00:00 3.6 8 Sudeste 31 Sudeste 0 -- -- 96
2020-03-24 04:00:00 3.5 6 Sudeste 24 Sudeste 0 -- -- 100
2020-03-24 03:00:00 3.5 10 Sudeste 24 Sur 0 -- -- 100
2020-03-24 02:00:00 3.8 7 Sudeste 31 Sur 0 -- -- 99
2020-03-24 01:00:00 4 9 Sudeste 43 Sudeste 0 -- -- 96
2020-03-24 00:00:00 3.9 7 Sudeste 26 Sur 0 -- -- 95
2020-03-23 23:00:00 3.9 10 Sur 35 Este 0.2 -- -- 98
2020-03-23 22:00:00 3.6 11 Sudeste 30 Este 1.4 -- -- 99
2020-03-23 21:00:00 3.2 12 Sudeste 33 Este 1 -- -- 98
2020-03-23 20:00:00 3.2 10 Sudeste 35 Sur 0.4 -- -- 98
2020-03-23 19:00:00 3.9 8 Sudeste 24 Norte 0.8 -- -- 99
2020-03-23 18:00:00 3.8 5 Este 28 Sudeste 0.8 -- -- 99
2020-03-23 17:00:00 3 7 Sur 30 Sur 1.4 -- -- 99
2020-03-23 16:00:00 2.9 10 Este 33 Sudeste 2.2 -- -- 98
2020-03-23 15:00:00 4.1 8 Sudeste 27 Sudeste 1 -- -- 96
2020-03-23 14:00:00 4.3 6 Sur 29 Sudeste 0.2 -- -- 95
2020-03-23 13:00:00 10 10 Sur 28 Sur 0 -- -- 71
2020-03-23 12:00:00 8.9 10 Sur 22 Sudoeste 0 -- -- 76
2020-03-23 11:00:00 7.6 5 Sudeste 11 Sudeste 0 -- -- 80
2020-03-23 10:00:00 3.3 0 Calma 10 Sur 0.2 -- -- 87
2020-03-23 09:00:00 3.8 2 Este 9 Este 0 -- -- 82
2020-03-23 08:00:00 1.8 6 Sudeste 12 Sudeste 0 -- -- 89
2020-03-23 07:00:00 0.9 5 Este 8 Este 0 -- -- 89
2020-03-23 06:00:00 1 3 Sudoeste 6 Norte 0 -- -- 90
2020-03-23 05:00:00 1.8 2 Nordeste 6 Nordeste 0 -- -- 84
2020-03-23 04:00:00 1.2 0 Calma 2 Noroeste 0 -- -- 93
2020-03-23 03:00:00 1.7 0 Calma 5 Nordeste 0 -- -- 91
2020-03-23 02:00:00 1.2 0 Calma 7 Sudeste 0 -- -- 99
2020-03-23 01:00:00 1.3 0 Calma 7 Norte 0 -- -- 98
2020-03-23 00:00:00 1.9 5 Noroeste 9 Noroeste 0.2 -- -- 99
2020-03-22 23:00:00 1.9 4 Noroeste 8 Noroeste 0 -- -- 97
2020-03-22 22:00:00 1.8 0 Calma 3 Nordeste 0 -- -- 96
2020-03-22 21:00:00 1.8 0 Calma 13 Norte 0 -- -- 98
2020-03-22 20:00:00 2.3 9 Norte 13 Norte 0 -- -- 99
2020-03-22 19:00:00 2.4 10 Noroeste 17 Norte 0.2 -- -- 99
2020-03-22 18:00:00 2.5 13 Norte 17 Norte 1.2 -- -- 98
2020-03-22 17:00:00 4 7 Noroeste 19 Norte 0 -- -- 96
2020-03-22 16:00:00 2.7 13 Norte 26 Noroeste 2 -- -- 98
2020-03-22 15:00:00 3.1 12 Noroeste 24 Noroeste 0.2 -- -- 100
2020-03-22 14:00:00 3.1 14 Noroeste 24 Noroeste 0 -- -- 99
2020-03-22 13:00:00 3.1 15 Noroeste 27 Oeste 0 -- -- 99
2020-03-22 12:00:00 2.9 10 Noroeste 18 Noroeste 0.4 -- -- 99
2020-03-22 11:00:00 2.8 8 Noroeste 18 Noroeste 0 -- -- 99
2020-03-22 10:00:00 3 6 Noroeste 9 Noroeste 1 -- -- 96
2020-03-22 09:00:00 1.9 2 Noroeste 7 Noroeste 1 -- -- 100
2020-03-22 08:00:00 1.5 2 Sudeste 11 Sudeste 1.2 -- -- 100
2020-03-22 07:00:00 0.5 0 Calma 5 Este 0.4 -- -- 100
2020-03-22 06:00:00 0.2 2 Noroeste 8 Este 0.2 -- -- 100
2020-03-22 05:00:00 0.3 2 Este 15 Norte 0.2 -- -- 100
2020-03-22 04:00:00 0.6 13 Norte 20 Norte 0.4 -- -- 100
2020-03-22 03:00:00 1.1 18 Noroeste 33 Noroeste 0.2 -- -- 100
2020-03-22 02:00:00 1.3 17 Norte 28 Noroeste 0.8 -- -- 100
2020-03-22 01:00:00 1.4 17 Noroeste 31 Noroeste 0.2 -- -- 100
2020-03-22 00:00:00 1.6 18 Noroeste 34 Noroeste 0.2 -- -- 100
2020-03-21 23:00:00 1.7 17 Noroeste 28 Noroeste 0 -- -- 100
2020-03-21 22:00:00 1.6 14 Norte 33 Noroeste 0.6 -- -- 100
2020-03-21 21:00:00 1.8 14 Noroeste 36 Oeste 1.4 -- -- 99
2020-03-21 20:00:00 3.1 24 Noroeste 36 Oeste 0.2 -- -- 94
2020-03-21 19:00:00 4.3 15 Noroeste 30 Noroeste 0 -- -- 83
2020-03-21 18:00:00 5.8 14 Noroeste 28 Oeste 0 -- -- 83
2020-03-21 17:00:00 5.6 18 Noroeste 28 Oeste 0 -- -- 92
2020-03-21 16:00:00 5.8 17 Oeste 39 Oeste 0.2 -- -- 93
2020-03-21 15:00:00 7 15 Noroeste 28 Noroeste 0 -- -- 81
2020-03-21 14:00:00 7.7 17 Noroeste 33 Noroeste 0 -- -- 74
2020-03-21 13:00:00 7.2 18 Oeste 35 Noroeste 0 -- -- 82
2020-03-21 12:00:00 8.1 22 Noroeste 34 Noroeste 0 -- -- 77
2020-03-21 11:00:00 3.9 8 Norte 48 Noroeste 0.8 -- -- 100
2020-03-21 10:00:00 2.3 20 Noroeste 49 Noroeste 0.4 -- -- 100
2020-03-21 09:00:00 1.6 8 Noroeste 46 Noroeste 2.6 -- -- 100
2020-03-21 08:00:00 0.6 33 Noroeste 50 Noroeste 4.8 -- -- 100
2020-03-21 07:00:00 4 5 Oeste 10 Sudoeste 2 -- -- 100
2020-03-21 06:00:00 4.1 3 Sur 8 Sudeste 0.2 -- -- 100
2020-03-21 05:00:00 4.2 3 Sudeste 11 Sur 0.2 -- -- 100
2020-03-21 04:00:00 4.1 5 Sudeste 12 Sur 0 -- -- 100
2020-03-21 03:00:00 4 4 Sudeste 14 Sudeste 0 -- -- 100
2020-03-21 02:00:00 4 4 Sudeste 11 Sur 0 -- -- 100
2020-03-21 01:00:00 4.1 3 Sur 19 Sudeste 0.2 -- -- 100
2020-03-21 00:00:00 4.1 5 Sudeste 19 Sudeste 0 -- -- 100
2020-03-20 23:00:00 4.2 4 Sur 18 Sudeste 0 -- -- 100
2020-03-20 22:00:00 4.6 6 Sur 15 Sur 0 -- -- 99
2020-03-20 21:00:00 4.8 6 Sur 12 Sudoeste 0 -- -- 99
2020-03-20 20:00:00 5.9 2 Norte 14 Noroeste 0 -- -- 97
2020-03-20 19:00:00 6.9 10 Noroeste 20 Noroeste 0 -- -- 91
2020-03-20 18:00:00 9.8 9 Oeste 16 Oeste 0 -- -- 71
2020-03-20 17:00:00 11 5 Noroeste 13 Oeste 0 -- -- 70
2020-03-20 16:00:00 9.9 0 Calma 19 Sudoeste 0 -- -- 67
2020-03-20 15:00:00 9.5 10 Este 15 Este 0 -- -- 68
2020-03-20 14:00:00 10.8 2 Este 13 Este 0 -- -- 70
2020-03-20 13:00:00 8.4 7 Sudeste 27 Sudeste 0 -- -- 74
2020-03-20 12:00:00 7 12 Sudeste 26 Sudeste 0 -- -- 79
2020-03-20 11:00:00 6.6 12 Sur 32 Sur 0 -- -- 78
2020-03-20 10:00:00 6.7 9 Oeste 13 Sudoeste 0 -- -- 75
2020-03-20 09:00:00 7.2 5 Sudeste 14 Sudeste 0 -- -- 67
2020-03-20 08:00:00 6.1 12 Este 31 Sur 0 -- -- 68
2020-03-20 07:00:00 6 13 Este 19 Nordeste 0 -- -- 69
2020-03-20 06:00:00 4.1 2 Sudeste 11 Sudeste 0 -- -- 77
2020-03-20 05:00:00 6.6 8 Sudeste 14 Sudeste 0 -- -- 58
2020-03-20 04:00:00 5.3 12 Sudeste 18 Sudeste 0 -- -- 65
2020-03-20 03:00:00 3.8 10 Sudeste 22 Sudeste 0 -- -- 77
2020-03-20 02:00:00 4 10 Sudeste 26 Sur 0 -- -- 79
2020-03-20 01:00:00 2.7 10 Sudeste 24 Sur 0 -- -- 93
2020-03-20 00:00:00 3.3 7 Sudeste 29 Sudeste 0 -- -- 93
2020-03-19 23:00:00 3.3 9 Sudeste 23 Sudeste 0 -- -- 98
2020-03-19 22:00:00 4 6 Sudeste 25 Sur 0 -- -- 97
2020-03-19 21:00:00 4.7 14 Sur 31 Sur 0 -- -- 98
2020-03-19 20:00:00 5.1 16 Sudeste 32 Sudeste 0 -- -- 96
2020-03-19 19:00:00 6.2 11 Sudeste 25 Sur 0 -- -- 91
2020-03-19 18:00:00 8.7 10 Sur 18 Sur 0 -- -- 81
2020-03-19 17:00:00 12.1 6 Sur 18 Sudeste 0 -- -- 68
2020-03-19 16:00:00 13.4 10 Sudeste 25 Sudeste 0 -- -- 64
2020-03-19 15:00:00 12.2 16 Sudeste 28 Sur 0 -- -- 67
2020-03-19 14:00:00 11.9 9 Sur 24 Sur 0 -- -- 69
2020-03-19 13:00:00 11.5 12 Sur 24 Sur 0 -- -- 69
2020-03-19 12:00:00 11.3 12 Sur 29 Sur 0 -- -- 69
2020-03-19 11:00:00 8 12 Sur 21 Sur 0 -- -- 82
2020-03-19 10:00:00 8.9 10 Sur 22 Sur 0 -- -- 78
2020-03-19 09:00:00 6.9 12 Sur 20 Sur 0 -- -- 88
2020-03-19 08:00:00 4.9 8 Sudeste 18 Sudeste 0 -- -- 100
2020-03-19 07:00:00 3.7 12 Sudeste 18 Sudeste 0 -- -- 100
2020-03-19 06:00:00 3.6 12 Sudeste 22 Sur 0 -- -- 100
2020-03-19 05:00:00 3.7 9 Sudeste 22 Sur 0 -- -- 100
2020-03-19 04:00:00 3.4 14 Sudeste 22 Sudeste 0 -- -- 100
2020-03-19 03:00:00 3.6 8 Sudeste 25 Sur 0 -- -- 100
2020-03-19 02:00:00 3.8 14 Sudeste 28 Sur 0 -- -- 100
2020-03-19 01:00:00 4.1 12 Sudeste 27 Sudeste 0 -- -- 100
2020-03-19 00:00:00 4.1 14 Sudeste 27 Sur 0 -- -- 100
2020-03-18 23:00:00 4.5 11 Sur 26 Sur 0 -- -- 99
2020-03-18 22:00:00 4.8 12 Sur 26 Sudeste 0 -- -- 99
2020-03-18 21:00:00 4.9 14 Sur 27 Sudeste 0 -- -- 98
2020-03-18 20:00:00 5.4 13 Sur 24 Sur 0 -- -- 97
2020-03-18 19:00:00 6.3 10 Sur 25 Sudeste 0 -- -- 93
2020-03-18 18:00:00 8.4 10 Sudeste 30 Sur 0 -- -- 83
2020-03-18 17:00:00 11.1 10 Sur 29 Sur 0 -- -- 67
2020-03-18 16:00:00 11.8 10 Sur 38 Sur 0 -- -- 63
2020-03-18 15:00:00 10.7 15 Sudeste 34 Sur 0 -- -- 69
2020-03-18 14:00:00 10.7 12 Sudeste 40 Sudeste 0 -- -- 73
2020-03-18 13:00:00 9.6 12 Sudeste 32 Sudeste 0 -- -- 78
2020-03-18 12:00:00 7.1 13 Sudeste 40 Sudeste 0 -- -- 88
2020-03-18 11:00:00 8.3 12 Sudeste 39 Sudeste 0 -- -- 85
2020-03-18 10:00:00 6.2 12 Sudeste 35 Sudeste 0 -- -- 94
2020-03-18 09:00:00 5.2 11 Sudeste 34 Sur 0 -- -- 100
2020-03-18 08:00:00 4.6 10 Sudeste 32 Este 0 -- -- 100
2020-03-18 07:00:00 4.6 9 Sur 31 Sur 0 -- -- 100
2020-03-18 06:00:00 5.1 9 Este 30 Sudeste 0 -- -- 100
2020-03-18 05:00:00 5.3 10 Nordeste 35 Sudeste 0 -- -- 100
2020-03-18 04:00:00 5.4 9 Este 40 Sudeste 0 -- -- 100
2020-03-18 03:00:00 5.2 12 Sudeste 37 Sur 0.2 -- -- 100
2020-03-18 02:00:00 5.3 10 Sudeste 42 Sudeste 0 -- -- 100
2020-03-18 01:00:00 5.6 10 Sudeste 40 Sudeste 0.2 -- -- 99
2020-03-18 00:00:00 6.3 15 Este 43 Sudeste 0 -- -- 97
2020-03-17 23:00:00 6.6 13 Sudeste 47 Sur 0 -- -- 97
2020-03-17 22:00:00 6.8 10 Este 45 Sudeste 0 -- -- 97
2020-03-17 21:00:00 7 9 Sudeste 39 Sudeste 0 -- -- 95
2020-03-17 20:00:00 6.6 12 Sudeste 42 Sur 0 -- -- 96
2020-03-17 19:00:00 6.5 10 Sudeste 37 Sur 0 -- -- 95
2020-03-17 18:00:00 6.2 10 Este 28 Sudeste 0 -- -- 98
2020-03-17 17:00:00 5 8 Sudeste 22 Sur 1.2 -- -- 97
2020-03-17 16:00:00 5.6 7 Sudeste 38 Sudeste 0.4 -- -- 90
2020-03-17 15:00:00 7.3 9 Sudeste 25 Sudeste 0 -- -- 62
2020-03-17 14:00:00 6.8 4 Sudeste 23 Sudoeste 0 -- -- 60
2020-03-17 13:00:00 6.3 5 Sudeste 19 Este 0 -- -- 55
2020-03-17 12:00:00 5.1 6 Sudeste 19 Sudeste 0 -- -- 51
2020-03-17 11:00:00 4.3 8 Sudeste 27 Sudeste 0 -- -- 51
2020-03-17 10:00:00 4 6 Sudeste 22 Sur 0 -- -- 67
2020-03-17 09:00:00 3.8 7 Sudeste 18 Sudeste 0 -- -- 73
2020-03-17 08:00:00 0 5 Sudeste 14 Sudeste 0 -- -- 86
2020-03-17 07:00:00 -0.1 3 Sudeste 6 Este 0 -- -- 81
2020-03-17 06:00:00 -0.2 3 Sur 10 Noroeste 0 -- -- 80
2020-03-17 05:00:00 0.3 4 Este 5 Este 0 -- -- 83
2020-03-17 04:00:00 0.5 0 Calma 8 Sudoeste 0 -- -- 75
2020-03-17 03:00:00 -0.2 2 Sur 10 Este 0 -- -- 77
2020-03-17 02:00:00 0 6 Este 14 Sudeste 0 -- -- 81
2020-03-17 01:00:00 0.2 7 Sudeste 14 Sur 0 -- -- 82
2020-03-17 00:00:00 0.5 3 Sudeste 10 Sur 0 -- -- 75
2020-03-16 23:00:00 0.4 4 Sudeste 18 Sudeste 0 -- -- 64
2020-03-16 22:00:00 1.1 2 Sudeste 15 Sudeste 0 -- -- 60
2020-03-16 21:00:00 1.6 4 Sudeste 15 Sudeste 0 -- -- 56
2020-03-16 20:00:00 2.8 4 Sudeste 33 Nordeste 0 -- -- 46
2020-03-16 19:00:00 3.6 22 Este 35 Este 0 -- -- 49
2020-03-16 18:00:00 4.9 17 Nordeste 36 Nordeste 0 -- -- 45
2020-03-16 17:00:00 9.5 17 Oeste 39 Noroeste 0 -- -- 23
2020-03-16 16:00:00 8.7 18 Oeste 42 Noroeste 0 -- -- 35
2020-03-16 15:00:00 7.9 29 Noroeste 68 Noroeste 0 -- -- 37
2020-03-16 14:00:00 8.1 41 Noroeste 64 Norte 0.2 -- -- 27
2020-03-16 13:00:00 5.2 20 Noroeste 31 Noroeste 0 -- -- 67
2020-03-16 12:00:00 4 21 Noroeste 45 Noroeste 0 -- -- 93
2020-03-16 11:00:00 4.3 32 Noroeste 47 Noroeste 0 -- -- 98
2020-03-16 10:00:00 4.9 22 Noroeste 38 Noroeste 0 -- -- 98
2020-03-16 09:00:00 5.7 30 Noroeste 49 Norte 0 -- -- 93
2020-03-16 08:00:00 4.6 20 Noroeste 34 Noroeste 0 -- -- 97
2020-03-16 07:00:00 5 19 Norte 39 Norte 0 -- -- 90
2020-03-16 06:00:00 5.7 13 Norte 28 Noroeste 0 -- -- 85
2020-03-16 05:00:00 6 15 Norte 25 Norte 0 -- -- 79
2020-03-16 04:00:00 5.9 16 Norte 24 Norte 0 -- -- 78
2020-03-16 03:00:00 6.3 12 Norte 22 Norte 0 -- -- 75
2020-03-16 02:00:00 6.8 17 Norte 27 Norte 0 -- -- 73
2020-03-16 01:00:00 7 14 Norte 21 Norte 0 -- -- 75
2020-03-16 00:00:00 7 12 Norte 18 Norte 0 -- -- 77
2020-03-15 23:00:00 7.3 5 Norte 12 Norte 0 -- -- 77
2020-03-15 22:00:00 7.2 10 Norte 16 Norte 0 -- -- 82
2020-03-15 21:00:00 8 3 Nordeste 4 Nordeste 0 -- -- 76
2020-03-15 20:00:00 8.2 0 Calma 14 Este 0 -- -- 72
2020-03-15 19:00:00 7.2 8 Este 16 Este 0.6 -- -- 87
2020-03-15 18:00:00 8.8 2 Sudeste 8 Sudeste 0.2 -- -- 84
2020-03-15 17:00:00 9.7 4 Sudoeste 13 Sudoeste 0.2 -- -- 85
2020-03-15 16:00:00 9.5 6 Este 15 Noroeste 0 -- -- 91
2020-03-15 15:00:00 9 14 Norte 35 Noroeste 0 -- -- 90
2020-03-15 14:00:00 13.3 24 Noroeste 36 Noroeste 0 -- -- 62
2020-03-15 13:00:00 13.2 19 Noroeste 31 Noroeste 0 -- -- 66
2020-03-15 12:00:00 13.6 9 Noroeste 16 Oeste 0 -- -- 60
2020-03-15 11:00:00 10.7 6 Noroeste 15 Oeste 0 -- -- 72
2020-03-15 10:00:00 12.3 11 Noroeste 16 Noroeste 0 -- -- 56
2020-03-15 09:00:00 11.5 7 Noroeste 14 Norte 0 -- -- 62
2020-03-15 08:00:00 9.7 5 Noroeste 15 Nordeste 0 -- -- 61
2020-03-15 07:00:00 7.9 11 Norte 13 Norte 0 -- -- 75
2020-03-15 06:00:00 8.5 3 Nordeste 5 Nordeste 0 -- -- 63
2020-03-15 05:00:00 7.3 3 Oeste 5 Oeste 0 -- -- 70
2020-03-15 04:00:00 8.6 2 Norte 11 Sudeste 0 -- -- 64
2020-03-15 03:00:00 8.4 8 Sudeste 10 Sudeste 0 -- -- 63
2020-03-15 02:00:00 9.2 2 Nordeste 10 Sudeste 0 -- -- 69
2020-03-15 01:00:00 9.2 8 Sudeste 10 Sudeste 0 -- -- 67
2020-03-15 00:00:00 8.8 6 Sudeste 9 Sudeste 0 -- -- 77
2020-03-14 23:00:00 9 2 Oeste 6 Sudeste 0 -- -- 81
2020-03-14 22:00:00 9.4 4 Sudeste 9 Este 0 -- -- 77
2020-03-14 21:00:00 8.9 7 Sudeste 9 Este 0 -- -- 86
2020-03-14 20:00:00 9.2 0 Calma 8 Oeste 0 -- -- 86
2020-03-14 19:00:00 11.3 5 Oeste 17 Sudoeste 0 -- -- 76
2020-03-14 18:00:00 14.1 10 Oeste 22 Noroeste 0 -- -- 63
2020-03-14 17:00:00 14.6 12 Oeste 28 Oeste 0 -- -- 61
2020-03-14 16:00:00 16.3 14 Oeste 28 Oeste 0 -- -- 55
2020-03-14 15:00:00 16 11 Oeste 25 Oeste 0 -- -- 56
2020-03-14 14:00:00 15.6 11 Noroeste 23 Oeste 0 -- -- 55
2020-03-14 13:00:00 14.6 11 Oeste 22 Oeste 0 -- -- 60
2020-03-14 12:00:00 13.9 12 Oeste 18 Noroeste 0 -- -- 56
2020-03-14 11:00:00 13.2 7 Oeste 14 Oeste 0 -- -- 56
2020-03-14 10:00:00 11.6 9 Oeste 13 Oeste 0 -- -- 57
2020-03-14 09:00:00 12.3 3 Sudeste 9 Sudeste 0 -- -- 37
2020-03-14 08:00:00 9.4 5 Sudeste 10 Sudeste 0 -- -- 37
2020-03-14 07:00:00 9.7 7 Este 12 Este 0 -- -- 34
2020-03-14 06:00:00 8.9 8 Sudeste 10 Sudeste 0 -- -- 40
2020-03-14 05:00:00 9.6 4 Sudeste 9 Este 0 -- -- 41
2020-03-14 04:00:00 8.5 7 Norte 9 Norte 0 -- -- 62
2020-03-14 03:00:00 8.8 2 Norte 6 Sudeste 0 -- -- 50
2020-03-14 02:00:00 11.1 4 Sudeste 8 Sudeste 0 -- -- 32
2020-03-14 01:00:00 9.9 2 Este 5 Nordeste 0 -- -- 53
2020-03-14 00:00:00 9 4 Noroeste 7 Noroeste 0 -- -- 75
2020-03-13 23:00:00 10.5 3 Sudeste 6 Sudeste 0 -- -- 51
2020-03-13 22:00:00 12.1 0 Calma 15 Norte 0 -- -- 52
2020-03-13 21:00:00 11.9 5 Norte 8 Noroeste 0 -- -- 59
2020-03-13 20:00:00 11.6 7 Norte 11 Norte 0 -- -- 63
2020-03-13 19:00:00 12.8 3 Oeste 6 Noroeste 0 -- -- 61
2020-03-13 18:00:00 13.3 4 Nordeste 29 Norte 0 -- -- 56
2020-03-13 17:00:00 16.1 6 Oeste 15 Noroeste 0 -- -- 51
2020-03-13 16:00:00 15 9 Noroeste 17 Noroeste 0 -- -- 54
2020-03-13 15:00:00 15.7 6 Oeste 22 Noroeste 0 -- -- 42
2020-03-13 14:00:00 17.5 20 Noroeste 32 Noroeste 0 -- -- 39
2020-03-13 13:00:00 16.6 13 Noroeste 19 Noroeste 0 -- -- 43
2020-03-13 12:00:00 14.2 13 Noroeste 23 Oeste 0 -- -- 46
2020-03-13 11:00:00 18.1 9 Sudoeste 17 Sur 0 -- -- 35
2020-03-13 10:00:00 17.5 5 Sur 10 Sur 0 -- -- 38
2020-03-13 09:00:00 14.7 2 Nordeste 4 Nordeste 0 -- -- 44
2020-03-13 08:00:00 13.6 2 Nordeste 8 Nordeste 0 -- -- 41
2020-03-13 07:00:00 12.9 3 Norte 6 Noroeste 0 -- -- 43
2020-03-13 06:00:00 13.8 0 Calma 4 Nordeste 0 -- -- 40
2020-03-13 05:00:00 14.4 0 Calma 6 Este 0 -- -- 39
2020-03-13 04:00:00 14.3 5 Sudeste 9 Nordeste 0 -- -- 39
2020-03-13 03:00:00 14 0 Calma 8 Sudeste 0 -- -- 40
2020-03-13 02:00:00 13.9 4 Este 12 Nordeste 0 -- -- 41
2020-03-13 01:00:00 13.8 3 Oeste 14 Norte 0 -- -- 41
2020-03-13 00:00:00 13.1 10 Norte 17 Norte 0 -- -- 44
2020-03-12 23:00:00 13.9 8 Este 15 Nordeste 0 -- -- 41
2020-03-12 22:00:00 13.6 8 Norte 16 Norte 0 -- -- 42
2020-03-12 21:00:00 13.8 4 Norte 10 Nordeste 0 -- -- 42
2020-03-12 20:00:00 13.9 4 Sudeste 6 Sudeste 0 -- -- 43
2020-03-12 19:00:00 17.1 0 Calma 15 Noroeste 0 -- -- 37
2020-03-12 18:00:00 19.4 13 Noroeste 26 Noroeste 0 -- -- 34
2020-03-12 17:00:00 21 19 Noroeste 28 Noroeste 0 -- -- 32
2020-03-12 16:00:00 21.6 19 Noroeste 33 Noroeste 0 -- -- 30
2020-03-12 15:00:00 20.3 19 Noroeste 31 Noroeste 0 -- -- 29
2020-03-12 14:00:00 20.9 19 Noroeste 32 Noroeste 0 -- -- 28
2020-03-12 13:00:00 19.7 17 Noroeste 30 Oeste 0 -- -- 28
2020-03-12 12:00:00 19.4 12 Noroeste 22 Noroeste 0 -- -- 30
2020-03-12 11:00:00 18.7 10 Noroeste 19 Oeste 0 -- -- 29
2020-03-12 10:00:00 17.5 8 Noroeste 14 Noroeste 0 -- -- 31
2020-03-12 09:00:00 15.6 5 Oeste 7 Oeste 0 -- -- 33
2020-03-12 08:00:00 14.9 5 Sudeste 6 Sudeste 0 -- -- 31
2020-03-12 07:00:00 14.3 4 Este 7 Nordeste 0 -- -- 33
2020-03-12 06:00:00 13.8 5 Nordeste 8 Nordeste 0 -- -- 34
2020-03-12 05:00:00 14.1 4 Nordeste 8 Nordeste 0 -- -- 33
2020-03-12 04:00:00 13.6 6 Nordeste 16 Norte 0 -- -- 36
2020-03-12 03:00:00 14.1 12 Norte 17 Norte 0 -- -- 36
2020-03-12 02:00:00 13.4 7 Nordeste 9 Norte 0 -- -- 38
2020-03-12 01:00:00 15.1 4 Noroeste 9 Norte 0 -- -- 35
2020-03-12 00:00:00 15.7 4 Sudeste 8 Sudeste 0 -- -- 32
2020-03-11 23:00:00 15.8 4 Sudeste 8 Sudeste 0 -- -- 36
2020-03-11 22:00:00 15 3 Nordeste 5 Nordeste 0 -- -- 40
2020-03-11 21:00:00 15.4 5 Sudeste 9 Este 0 -- -- 38
2020-03-11 20:00:00 14.7 5 Sur 6 Sudeste 0 -- -- 41
2020-03-11 19:00:00 17 5 Norte 17 Noroeste 0 -- -- 36
2020-03-11 18:00:00 19.9 13 Noroeste 22 Noroeste 0 -- -- 32
2020-03-11 17:00:00 21 12 Noroeste 22 Noroeste 0 -- -- 31
2020-03-11 16:00:00 20.8 15 Noroeste 28 Noroeste 0 -- -- 32
2020-03-11 15:00:00 21.8 16 Noroeste 26 Oeste 0 -- -- 29
2020-03-11 14:00:00 21.2 11 Noroeste 24 Oeste 0 -- -- 29
2020-03-11 13:00:00 20.6 14 Noroeste 21 Oeste 0 -- -- 28
2020-03-11 12:00:00 19.5 10 Oeste 19 Sudoeste 0 -- -- 30
2020-03-11 11:00:00 19.4 12 Sudoeste 17 Sudoeste 0 -- -- 23
2020-03-11 10:00:00 18.1 9 Sudoeste 14 Sur 0 -- -- 30
2020-03-11 09:00:00 16.8 0 Calma 5 Nordeste 0 -- -- 29
2020-03-11 08:00:00 14.9 2 Este 8 Sudeste 0 -- -- 31
2020-03-11 07:00:00 14.7 4 Sudeste 9 Sudeste 0 -- -- 29
2020-03-11 06:00:00 14.5 6 Sudeste 13 Sudeste 0 -- -- 29
2020-03-11 05:00:00 14.7 2 Sudeste 7 Sudeste 0 -- -- 32
2020-03-11 04:00:00 14.9 4 Sudeste 6 Sudeste 0 -- -- 30
2020-03-11 03:00:00 14.4 5 Este 9 Sudeste 0 -- -- 32
2020-03-11 02:00:00 15.2 5 Sudeste 8 Sudeste 0 -- -- 29
2020-03-11 01:00:00 14.5 3 Nordeste 12 Noroeste 0 -- -- 34
2020-03-11 00:00:00 12.6 4 Norte 13 Norte 0 -- -- 42
2020-03-10 23:00:00 14.8 2 Sudoeste 5 Oeste 0 -- -- 36
2020-03-10 22:00:00 14.5 0 Calma 10 Este 0 -- -- 39
2020-03-10 21:00:00 14.4 6 Sudeste 14 Sudeste 0 -- -- 40
2020-03-10 20:00:00 13 3 Oeste 24 Este 0 -- -- 52
2020-03-10 19:00:00 14.3 5 Este 17 Este 0 -- -- 49
2020-03-10 18:00:00 13.6 6 Sudeste 11 Noroeste 0 -- -- 57
2020-03-10 17:00:00 16.2 4 Noroeste 18 Noroeste 0 -- -- 51
2020-03-10 16:00:00 16.6 10 Noroeste 21 Oeste 0 -- -- 48
2020-03-10 15:00:00 16.5 11 Noroeste 26 Noroeste 0 -- -- 46
2020-03-10 14:00:00 16.5 11 Noroeste 21 Oeste 0 -- -- 42
2020-03-10 13:00:00 15.7 13 Noroeste 23 Noroeste 0 -- -- 42
2020-03-10 12:00:00 15.2 11 Noroeste 18 Oeste 0 -- -- 41
2020-03-10 11:00:00 15 6 Noroeste 20 Sudoeste 0 -- -- 40
2020-03-10 10:00:00 15.4 9 Sur 21 Sudoeste 0 -- -- 36
2020-03-10 09:00:00 14.2 7 Sudoeste 24 Sur 0 -- -- 39
2020-03-10 08:00:00 11.7 6 Sur 18 Sur 0 -- -- 42
2020-03-10 07:00:00 11.5 7 Sur 17 Oeste 0 -- -- 40
2020-03-10 06:00:00 11.8 6 Sudoeste 14 Sudoeste 0 -- -- 38
2020-03-10 05:00:00 11.4 6 Este 19 Sudeste 0 -- -- 39
2020-03-10 04:00:00 9.9 5 Nordeste 33 Este 0 -- -- 44
2020-03-10 03:00:00 8 8 Sudeste 18 Sur 0 -- -- 50
2020-03-10 02:00:00 8.9 8 Sudeste 28 Nordeste 0 -- -- 46
2020-03-10 01:00:00 9.3 10 Sudoeste 31 Norte 0 -- -- 46
2020-03-10 00:00:00 8.3 6 Sur 24 Norte 0 -- -- 49
2020-03-09 23:00:00 9.4 13 Nordeste 31 Nordeste 0 -- -- 43
2020-03-09 22:00:00 8.7 9 Nordeste 43 Norte 0 -- -- 48
2020-03-09 21:00:00 9.1 31 Norte 63 Nordeste 0 -- -- 45
2020-03-09 20:00:00 10 31 Nordeste 49 Nordeste 0 -- -- 38
2020-03-09 19:00:00 12.7 6 Noroeste 32 Norte 0 -- -- 35
2020-03-09 18:00:00 16.3 10 Norte 33 Norte 0 -- -- 24
2020-03-09 17:00:00 17.2 20 Noroeste 39 Noroeste 0 -- -- 26
2020-03-09 16:00:00 17.2 20 Noroeste 39 Noroeste 0 -- -- 32
2020-03-09 15:00:00 15.8 26 Noroeste 44 Noroeste 0 -- -- 33
2020-03-09 14:00:00 16.9 26 Noroeste 41 Noroeste 0 -- -- 28
2020-03-09 13:00:00 16.4 26 Noroeste 39 Noroeste 0 -- -- 23
2020-03-09 12:00:00 16.4 21 Noroeste 30 Noroeste 0 -- -- 22
2020-03-09 11:00:00 15.5 21 Noroeste 30 Norte 0 -- -- 23
2020-03-09 10:00:00 13.2 12 Noroeste 23 Noroeste 0 -- -- 24
2020-03-09 09:00:00 11.5 5 Sur 62 Nordeste 0 -- -- 27
2020-03-09 08:00:00 10.1 46 Nordeste 64 Nordeste 0 -- -- 24
2020-03-09 07:00:00 10 46 Norte 68 Norte 0 -- -- 38
2020-03-09 06:00:00 8.6 27 Norte 50 Nordeste 0 -- -- 49
2020-03-09 05:00:00 9.1 13 Nordeste 51 Nordeste 0 -- -- 41
2020-03-09 04:00:00 9.7 30 Norte 59 Nordeste 0 -- -- 39
2020-03-09 03:00:00 9.6 42 Nordeste 67 Nordeste 0 -- -- 23
2020-03-09 02:00:00 10.1 50 Nordeste 64 Nordeste 0 -- -- 19
2020-03-09 01:00:00 11.1 36 Nordeste 45 Nordeste 0 -- -- 12
2020-03-09 00:00:00 11.7 37 Nordeste 50 Nordeste 0 -- -- 6
2020-03-08 23:00:00 11 35 Nordeste 53 Nordeste 0 -- -- 8
2020-03-08 22:00:00 10.6 22 Norte 37 Nordeste 0 -- -- 20
2020-03-08 21:00:00 11 12 Nordeste 41 Nordeste 0 -- -- 18
2020-03-08 20:00:00 11.4 17 Norte 38 Noroeste 0 -- -- 25
2020-03-08 19:00:00 12.6 9 Oeste 24 Oeste 0 -- -- 32
2020-03-08 18:00:00 16.8 11 Noroeste 22 Norte 0 -- -- 32
2020-03-08 17:00:00 15.6 15 Noroeste 28 Noroeste 0 -- -- 39
2020-03-08 16:00:00 16 23 Noroeste 32 Noroeste 0 -- -- 38
2020-03-08 15:00:00 16 27 Noroeste 35 Noroeste 0 -- -- 37
2020-03-08 14:00:00 15.3 25 Noroeste 38 Noroeste 0 -- -- 35
2020-03-08 13:00:00 14 20 Noroeste 35 Oeste 0 -- -- 38
2020-03-08 12:00:00 12.8 19 Noroeste 32 Noroeste 0 -- -- 37
2020-03-08 11:00:00 11.9 14 Noroeste 23 Noroeste 0 -- -- 38
2020-03-08 10:00:00 10.3 3 Noroeste 14 Noroeste 0 -- -- 38
2020-03-08 09:00:00 7.5 10 Noroeste 15 Noroeste 0 -- -- 43
2020-03-08 08:00:00 5.5 6 Norte 21 Noroeste 0 -- -- 44
2020-03-08 07:00:00 5.3 9 Norte 19 Norte 0 -- -- 45
2020-03-08 06:00:00 5.1 10 Norte 15 Noroeste 0 -- -- 42
2020-03-08 05:00:00 5.8 6 Sur 9 Sudeste 0 -- -- 39
2020-03-08 04:00:00 6.7 3 Noroeste 9 Este 0 -- -- 32
2020-03-08 03:00:00 6.9 5 Este 11 Este 0 -- -- 34
2020-03-08 02:00:00 7.2 8 Nordeste 28 Sudeste 0 -- -- 33
2020-03-08 01:00:00 7.3 7 Norte 15 Noroeste 0 -- -- 33
2020-03-08 00:00:00 7.5 2 Sudeste 30 Nordeste 0 -- -- 35
2020-03-07 23:00:00 7.6 9 Nordeste 23 Nordeste 0 -- -- 36
2020-03-07 22:00:00 7.5 15 Nordeste 26 Nordeste 0 -- -- 38
2020-03-07 21:00:00 7 19 Nordeste 26 Nordeste 0 -- -- 43
2020-03-07 20:00:00 6.6 18 Nordeste 27 Nordeste 0 -- -- 44
2020-03-07 19:00:00 6.7 15 Nordeste 26 Nordeste 0 -- -- 50
2020-03-07 18:00:00 9.7 22 Noroeste 28 Noroeste 0 -- -- 61
2020-03-07 17:00:00 10.9 20 Noroeste 28 Noroeste 0 -- -- 58
2020-03-07 16:00:00 11.3 18 Noroeste 32 Noroeste 0 -- -- 58
2020-03-07 15:00:00 10.3 21 Noroeste 32 Noroeste 0 -- -- 62
2020-03-07 14:00:00 10 22 Noroeste 33 Noroeste 0 -- -- 61
2020-03-07 13:00:00 11 17 Noroeste 30 Norte 0 -- -- 49
2020-03-07 12:00:00 9.8 15 Noroeste 26 Oeste 0 -- -- 43
2020-03-07 11:00:00 9.8 9 Este 36 Nordeste 0 -- -- 27
2020-03-07 10:00:00 8 8 Sudoeste 21 Oeste 0 -- -- 29
2020-03-07 09:00:00 5.5 10 Sudoeste 26 Norte 0 -- -- 25
2020-03-07 08:00:00 4.6 15 Noroeste 29 Noroeste 0 -- -- 19
2020-03-07 07:00:00 3.9 10 Norte 27 Norte 0 -- -- 28
2020-03-07 06:00:00 3.6 7 Norte 18 Norte 0 -- -- 53
2020-03-07 05:00:00 4.6 8 Norte 33 Nordeste 0 -- -- 36
2020-03-07 04:00:00 4.8 7 Norte 30 Nordeste 0 -- -- 41
2020-03-07 03:00:00 5 23 Norte 44 Nordeste 0 -- -- 33
2020-03-07 02:00:00 4.6 22 Nordeste 37 Este 0 -- -- 41
2020-03-07 01:00:00 3.8 8 Sur 51 Nordeste 0 -- -- 47
2020-03-07 00:00:00 4.1 25 Nordeste 55 Nordeste 0 -- -- 45
2020-03-06 23:00:00 4.5 32 Nordeste 73 Nordeste 0 -- -- 42
2020-03-06 22:00:00 4.4 40 Nordeste 62 Nordeste 0 -- -- 49
2020-03-06 21:00:00 4.9 32 Norte 63 Nordeste 0 -- -- 48
2020-03-06 20:00:00 5.3 27 Norte 59 Nordeste 0 -- -- 42
2020-03-06 19:00:00 6.8 41 Nordeste 82 Nordeste 0 -- -- 37
2020-03-06 18:00:00 8.3 50 Nordeste 78 Nordeste 0 -- -- 37
2020-03-06 17:00:00 9 53 Nordeste 90 Nordeste 0 -- -- 37
2020-03-06 16:00:00 9.8 55 Nordeste 91 Nordeste 0 -- -- 33
2020-03-06 15:00:00 10.3 60 Nordeste 84 Nordeste 0 -- -- 23
2020-03-06 14:00:00 11.8 40 Nordeste 73 Nordeste 0 -- -- 17
2020-03-06 13:00:00 11.4 21 Noroeste 37 Noroeste 0 -- -- 39
2020-03-06 12:00:00 9.1 23 Noroeste 41 Noroeste 0 -- -- 48
2020-03-06 11:00:00 7.7 26 Noroeste 39 Noroeste 0 -- -- 58
2020-03-06 10:00:00 7.2 15 Noroeste 62 Noroeste 0 -- -- 52
2020-03-06 09:00:00 5.4 18 Noroeste 52 Noroeste 0 -- -- 46
2020-03-06 08:00:00 6.1 29 Norte 60 Norte 0 -- -- 21
2020-03-06 07:00:00 4.6 29 Norte 70 Noroeste 0 -- -- 26
2020-03-06 06:00:00 5.6 45 Noroeste 65 Noroeste 0 -- -- 21
2020-03-06 05:00:00 6.3 34 Norte 67 Norte 0 -- -- 16
2020-03-06 04:00:00 7.4 32 Norte 86 Noroeste 0 -- -- 10
2020-03-06 03:00:00 7.2 43 Norte 66 Noroeste 0 -- -- 14
2020-03-06 02:00:00 7.2 8 Sudoeste 104 Noroeste 0 -- -- 22
2020-03-06 01:00:00 6.3 26 Oeste 75 Norte 0 -- -- 29
2020-03-06 00:00:00 5.5 49 Nordeste 79 Nordeste 0 -- -- 45
2020-03-05 23:00:00 5.5 51 Nordeste 75 Nordeste 0 -- -- 51
2020-03-05 22:00:00 6.4 46 Nordeste 82 Norte 0 -- -- 44
2020-03-05 21:00:00 6.8 40 Norte 87 Nordeste 0 -- -- 45
2020-03-05 20:00:00 8.8 57 Nordeste 81 Nordeste 0 -- -- 26
2020-03-05 19:00:00 10.4 51 Nordeste 76 Nordeste 0 -- -- 29
2020-03-05 18:00:00 14.8 41 Nordeste 70 Nordeste 0 -- -- 26
2020-03-05 17:00:00 14.1 45 Nordeste 68 Nordeste 0 -- -- 41
2020-03-05 16:00:00 15.8 44 Nordeste 65 Nordeste 0 -- -- 41
2020-03-05 15:00:00 16.8 31 Norte 50 Noroeste 0 -- -- 39
2020-03-05 14:00:00 15.7 19 Noroeste 38 Noroeste 0 -- -- 35
2020-03-05 13:00:00 16.9 28 Norte 37 Noroeste 0 -- -- 34
2020-03-05 12:00:00 15.3 15 Noroeste 24 Noroeste 0 -- -- 36
2020-03-05 11:00:00 13.4 10 Oeste 20 Oeste 0 -- -- 37
2020-03-05 10:00:00 14.3 2 Noroeste 19 Noroeste 0 -- -- 28
2020-03-05 09:00:00 10.8 9 Norte 15 Noroeste 0 -- -- 37
2020-03-05 08:00:00 8.8 3 Norte 6 Norte 0 -- -- 41
2020-03-05 07:00:00 8.9 6 Norte 12 Noroeste 0 -- -- 39
2020-03-05 06:00:00 10 8 Norte 12 Norte 0 -- -- 30
2020-03-05 05:00:00 11.1 3 Norte 18 Norte 0 -- -- 28
2020-03-05 04:00:00 10.4 10 Norte 15 Norte 0 -- -- 37
2020-03-05 03:00:00 11.5 11 Norte 15 Norte 0 -- -- 32
2020-03-05 02:00:00 12.4 8 Norte 12 Nordeste 0 -- -- 27
2020-03-05 01:00:00 13.4 8 Nordeste 16 Nordeste 0 -- -- 24
2020-03-05 00:00:00 13.9 6 Nordeste 15 Nordeste 0 -- -- 24
2020-03-04 23:00:00 13.2 6 Nordeste 12 Nordeste 0 -- -- 28
2020-03-04 22:00:00 12.7 6 Nordeste 11 Nordeste 0 -- -- 38
2020-03-04 21:00:00 13.2 4 Sur 10 Sudeste 0 -- -- 36
2020-03-04 20:00:00 12.3 3 Sudeste 12 Sur 0 -- -- 51
2020-03-04 19:00:00 14.9 3 Oeste 14 Noroeste 0 -- -- 40
2020-03-04 18:00:00 17.8 6 Noroeste 28 Noroeste 0 -- -- 39
2020-03-04 17:00:00 18.4 18 Noroeste 27 Noroeste 0 -- -- 40
2020-03-04 16:00:00 18.1 20 Noroeste 31 Noroeste 0 -- -- 42
2020-03-04 15:00:00 18.9 18 Noroeste 31 Noroeste 0 -- -- 38
2020-03-04 14:00:00 18.8 19 Noroeste 31 Noroeste 0 -- -- 39
2020-03-04 13:00:00 16.9 15 Noroeste 30 Noroeste 0 -- -- 42
2020-03-04 12:00:00 16.2 13 Noroeste 22 Oeste 0 -- -- 41
2020-03-04 11:00:00 16.9 15 Noroeste 26 Noroeste 0 -- -- 38
2020-03-04 10:00:00 15.3 17 Noroeste 26 Noroeste 0 -- -- 41
2020-03-04 09:00:00 12.4 21 Norte 27 Noroeste 0 -- -- 45
2020-03-04 08:00:00 10.7 13 Norte 19 Norte 0 -- -- 46
2020-03-04 07:00:00 10.3 14 Norte 22 Noroeste 0 -- -- 49
2020-03-04 06:00:00 10.3 12 Noroeste 35 Norte 0 -- -- 49
2020-03-04 05:00:00 12.4 25 Norte 51 Norte 0 -- -- 42
2020-03-04 04:00:00 12.5 28 Norte 56 Norte 0 -- -- 42
2020-03-04 03:00:00 12.3 36 Norte 57 Norte 0 -- -- 43
2020-03-04 02:00:00 11.2 13 Norte 40 Norte 0 -- -- 49
2020-03-04 01:00:00 11.4 18 Noroeste 66 Norte 0 -- -- 52
2020-03-04 00:00:00 10.6 45 Noroeste 73 Noroeste 0 -- -- 60
2020-03-03 23:00:00 10.1 28 Noroeste 55 Oeste 0 -- -- 63
2020-03-03 22:00:00 10.2 22 Oeste 62 Norte 0 -- -- 62
2020-03-03 21:00:00 11.3 14 Este 89 Este 0 -- -- 54
2020-03-03 20:00:00 10.9 44 Nordeste 78 Nordeste 0 -- -- 55
2020-03-03 19:00:00 11.6 39 Nordeste 76 Nordeste 0 -- -- 49
2020-03-03 18:00:00 13 16 Sur 67 Norte 0 -- -- 35
2020-03-03 17:00:00 13 30 Norte 86 Norte 0 -- -- 34
2020-03-03 16:00:00 13.3 43 Noroeste 77 Noroeste 0 -- -- 40
2020-03-03 15:00:00 13.7 33 Norte 68 Noroeste 0 -- -- 42
2020-03-03 14:00:00 12.4 17 Oeste 36 Oeste 0 -- -- 43
2020-03-03 13:00:00 11.5 17 Noroeste 39 Oeste 0 -- -- 42
2020-03-03 12:00:00 11.5 18 Noroeste 34 Oeste 0 -- -- 36
2020-03-03 11:00:00 8.3 21 Noroeste 30 Noroeste 0 -- -- 39
2020-03-03 10:00:00 7.8 17 Noroeste 32 Noroeste 0 -- -- 39
2020-03-03 09:00:00 7.3 21 Norte 34 Norte 0 -- -- 34
2020-03-03 08:00:00 6.7 10 Norte 84 Norte 0 -- -- 35
2020-03-03 07:00:00 8.5 34 Norte 68 Nordeste 0 -- -- 26
2020-03-03 06:00:00 6 6 Norte 28 Noroeste 0 -- -- 33
2020-03-03 05:00:00 5.9 10 Norte 49 Norte 0 -- -- 34
2020-03-03 04:00:00 9.2 39 Norte 67 Nordeste 0 -- -- 19
2020-03-03 03:00:00 7.7 26 Nordeste 42 Nordeste 0 -- -- 22
2020-03-03 02:00:00 6.1 6 Nordeste 42 Nordeste 0 -- -- 29
2020-03-03 01:00:00 7.2 34 Nordeste 98 Noroeste 0 -- -- 28
2020-03-03 00:00:00 6.8 33 Nordeste 97 Nordeste 0 -- -- 30
2020-03-02 23:00:00 5.9 70 Nordeste 105 Nordeste 0 -- -- 46
2020-03-02 22:00:00 5.5 79 Nordeste 105 Nordeste 0 -- -- 54
2020-03-02 21:00:00 6.1 62 Nordeste 92 Nordeste 0 -- -- 52
2020-03-02 20:00:00 6.7 50 Nordeste 78 Nordeste 0 -- -- 48
2020-03-02 19:00:00 8.1 39 Nordeste 82 Norte 0 -- -- 35
2020-03-02 18:00:00 10 45 Norte 83 Norte 0 -- -- 36
2020-03-02 17:00:00 11.5 54 Norte 86 Nordeste 0 -- -- 35
2020-03-02 16:00:00 12.3 63 Norte 95 Nordeste 0 -- -- 34
2020-03-02 15:00:00 12.9 57 Norte 93 Norte 0 -- -- 33
2020-03-02 14:00:00 13.2 53 Norte 103 Norte 0 -- -- 35
2020-03-02 13:00:00 12.4 57 Norte 95 Norte 0 -- -- 34
2020-03-02 12:00:00 12.9 24 Norte 54 Norte 0 -- -- 44
2020-03-02 11:00:00 10.7 35 Noroeste 51 Noroeste 0 -- -- 63
2020-03-02 10:00:00 11.2 26 Noroeste 51 Noroeste 0 -- -- 54
2020-03-02 09:00:00 9.7 48 Noroeste 73 Noroeste 0 -- -- 52
2020-03-02 08:00:00 9.1 51 Norte 106 Norte 0 -- -- 56
2020-03-02 07:00:00 9.9 71 Nordeste 96 Nordeste 0 -- -- 52
2020-03-02 06:00:00 8.3 17 Noroeste 40 Noroeste 0 -- -- 58
2020-03-02 05:00:00 8.3 26 Norte 58 Noroeste 0 -- -- 65
2020-03-02 04:00:00 7.5 44 Noroeste 62 Norte 0 -- -- 79
2020-03-02 03:00:00 7.6 37 Norte 51 Norte 0 -- -- 79
2020-03-02 02:00:00 7.7 20 Norte 43 Norte 0 -- -- 75
2020-03-02 01:00:00 7.1 17 Noroeste 27 Norte 0 -- -- 73
2020-03-02 00:00:00 6.5 8 Noroeste 16 Norte 0 -- -- 76